Time;durP1;ratioP1;P1;durP2;ratioP2;P2;SDS_P1;SDS_P2;PMS_P1;PMS_P2;Temp;Humidity;BMP_temperature;BMP_pressure;BME280_temperature;BME280_humidity;BME280_pressure;Samples;Min_cycle;Max_cycle;Signal;HPM_P1;HPM_P2
2022/08/02 00:01:53;;;;;;;14.60;12.37;;;14.70;99.90;;;;;;2607992;46;20569;-78
2022/08/02 00:04:19;;;;;;;16.47;13.03;;;14.60;99.90;;;;;;2608312;54;20560;-78
2022/08/02 00:06:45;;;;;;;16.20;13.80;;;14.60;99.90;;;;;;2608999;39;20955;-79
2022/08/02 00:09:10;;;;;;;14.13;12.73;;;14.60;99.90;;;;;;2613792;47;20438;-79
2022/08/02 00:11:36;;;;;;;16.50;12.60;;;14.50;99.90;;;;;;2611996;39;20585;-78
2022/08/02 00:14:03;;;;;;;25.30;14.57;;;14.30;99.90;;;;;;2614072;54;20155;-78
2022/08/02 00:16:29;;;;;;;14.63;13.27;;;14.30;99.90;;;;;;2613442;39;20626;-75
2022/08/02 00:18:54;;;;;;;16.00;13.57;;;14.20;99.90;;;;;;2612986;54;20427;-75
2022/08/02 00:21:20;;;;;;;14.63;13.33;;;14.20;99.90;;;;;;2613307;54;20154;-79
2022/08/02 00:23:46;;;;;;;15.80;14.20;;;14.10;99.90;;;;;;2613947;54;20222;-79
2022/08/02 00:26:12;;;;;;;18.07;14.83;;;14.20;99.90;;;;;;2611933;47;20171;-79
2022/08/02 00:28:38;;;;;;;17.63;14.00;;;14.40;99.90;;;;;;2608308;54;20183;-78
2022/08/02 00:31:03;;;;;;;17.83;14.67;;;14.30;99.90;;;;;;2607145;54;21036;-79
2022/08/02 00:33:29;;;;;;;19.37;14.47;;;14.30;99.90;;;;;;2608183;54;20167;-78
2022/08/02 00:35:55;;;;;;;15.47;13.80;;;14.40;99.90;;;;;;2608522;39;20260;-79
2022/08/02 00:38:20;;;;;;;21.03;14.50;;;14.50;99.90;;;;;;2607976;39;20602;-79
2022/08/02 00:40:48;;;;;;;20.07;15.20;;;14.50;99.90;;;;;;2607539;39;20429;-79
2022/08/02 00:43:14;;;;;;;20.97;14.10;;;14.50;99.90;;;;;;2606636;54;20198;-79
2022/08/02 00:45:41;;;;;;;15.13;12.60;;;14.50;99.90;;;;;;2608485;39;20821;-79
2022/08/02 00:48:08;;;;;;;18.47;14.70;;;14.50;99.90;;;;;;2608181;54;20269;-80
2022/08/02 00:50:35;;;;;;;15.40;13.87;;;14.50;99.90;;;;;;2607388;39;20830;-79
2022/08/02 00:53:01;;;;;;;19.73;14.90;;;14.40;99.90;;;;;;2607111;54;20727;-79
2022/08/02 00:55:27;;;;;;;15.77;13.87;;;14.20;99.90;;;;;;2607628;47;21038;-79
2022/08/02 00:57:54;;;;;;;15.30;13.73;;;14.10;99.90;;;;;;2607282;54;20186;-79
2022/08/02 01:00:20;;;;;;;15.87;14.30;;;14.20;99.90;;;;;;2607369;54;20444;-80
2022/08/02 01:02:46;;;;;;;16.40;13.30;;;14.10;99.90;;;;;;2607072;54;20412;-79
2022/08/02 01:05:12;;;;;;;15.30;13.83;;;14.10;99.90;;;;;;2607914;54;20420;-79
2022/08/02 01:07:38;;;;;;;21.73;14.30;;;14.10;99.90;;;;;;2607543;54;20416;-80
2022/08/02 01:10:04;;;;;;;16.53;12.80;;;14.00;99.90;;;;;;2607523;54;20620;-79
2022/08/02 01:12:30;;;;;;;17.37;13.77;;;14.10;99.90;;;;;;2608513;54;21010;-80
2022/08/02 01:15:00;;;;;;;15.07;13.57;;;14.20;99.90;;;;;;2607926;54;20436;-79
2022/08/02 01:17:46;;;;;;;16.17;12.93;;;14.30;99.90;;;;;;2608228;54;20188;-79
2022/08/02 01:20:31;;;;;;;19.17;13.33;;;14.40;99.90;;;;;;2606829;54;20442;-80
2022/08/02 01:23:27;;;;;;;16.13;13.97;;;14.20;99.90;;;;;;2607447;54;20419;-79
2022/08/02 01:26:23;;;;;;;19.13;14.77;;;14.20;99.90;;;;;;2607863;54;20423;-79
2022/08/02 01:28:59;;;;;;;15.80;14.20;;;14.10;99.90;;;;;;2612150;47;20948;-81
2022/08/02 01:31:54;;;;;;;15.60;14.10;;;14.10;99.90;;;;;;2613717;31;20889;-81
2022/08/02 01:34:37;;;;;;;19.10;15.93;;;14.30;99.90;;;;;;2613684;46;20557;-81
2022/08/02 01:37:08;;;;;;;15.87;13.30;;;14.40;99.90;;;;;;2612800;54;20415;-81
2022/08/02 01:39:37;;;;;;;16.73;14.43;;;14.20;99.90;;;;;;2613077;54;21486;-81
2022/08/02 01:42:04;;;;;;;14.97;13.50;;;14.20;99.90;;;;;;2613797;54;20423;-80
2022/08/02 01:44:35;;;;;;;16.77;13.73;;;14.30;99.90;;;;;;2610890;54;20443;-79
2022/08/02 01:47:09;;;;;;;17.50;13.63;;;14.20;99.90;;;;;;2614183;54;20428;-81
2022/08/02 01:49:38;;;;;;;19.63;14.20;;;14.20;99.90;;;;;;2614108;54;20427;-81
2022/08/02 01:52:21;;;;;;;17.90;14.10;;;14.30;99.90;;;;;;2612875;54;20442;-76
2022/08/02 01:55:09;;;;;;;15.53;14.03;;;14.20;99.90;;;;;;2613858;47;20453;-75
2022/08/02 01:57:44;;;;;;;15.23;13.80;;;14.10;99.90;;;;;;2614323;54;20420;-80
2022/08/02 02:00:11;;;;;;;16.57;15.00;;;14.10;99.90;;;;;;2612550;54;20474;-79
2022/08/02 02:02:40;;;;;;;18.17;13.07;;;14.10;99.90;;;;;;2612143;54;20422;-80
2022/08/02 02:05:10;;;;;;;17.23;14.80;;;14.20;99.90;;;;;;2612623;39;20864;-81
2022/08/02 02:07:37;;;;;;;16.70;15.10;;;14.20;99.90;;;;;;2614894;54;20487;-80
2022/08/02 02:10:05;;;;;;;15.17;13.20;;;14.00;99.90;;;;;;2614396;54;20424;-79
2022/08/02 02:12:33;;;;;;;14.37;12.93;;;14.00;99.90;;;;;;2614044;54;21336;-77
2022/08/02 02:15:01;;;;;;;20.27;15.40;;;13.90;99.90;;;;;;2613811;54;20404;-77
2022/08/02 02:17:28;;;;;;;16.43;14.60;;;13.90;99.90;;;;;;2610523;54;20431;-79
2022/08/02 02:19:56;;;;;;;15.23;13.93;;;13.90;99.90;;;;;;2607598;39;20933;-80
2022/08/02 02:22:22;;;;;;;15.07;13.70;;;13.80;99.90;;;;;;2608752;39;20685;-79
2022/08/02 02:24:48;;;;;;;25.60;15.70;;;13.90;99.90;;;;;;2606730;54;21042;-79
2022/08/02 02:27:15;;;;;;;20.47;15.77;;;13.90;99.90;;;;;;2607346;54;20428;-78
2022/08/02 02:29:45;;;;;;;17.90;16.10;;;14.00;99.90;;;;;;2606187;54;20162;-79
2022/08/02 02:32:15;;;;;;;17.17;15.50;;;13.90;99.90;;;;;;2604565;54;21613;-79
2022/08/02 02:34:44;;;;;;;16.60;14.70;;;14.00;99.90;;;;;;2606718;54;20456;-79
2022/08/02 02:37:17;;;;;;;22.17;14.67;;;14.00;99.90;;;;;;2607109;39;20468;-79
2022/08/02 02:39:44;;;;;;;16.73;14.20;;;13.80;99.90;;;;;;2608583;47;20415;-79
2022/08/02 02:42:13;;;;;;;17.97;15.33;;;13.90;99.90;;;;;;2608944;54;20803;-81
2022/08/02 02:44:40;;;;;;;18.43;16.27;;;13.90;99.90;;;;;;2607871;54;21044;-80
2022/08/02 02:47:07;;;;;;;18.70;15.77;;;13.80;99.90;;;;;;2609137;39;20866;-80
2022/08/02 02:49:35;;;;;;;20.57;18.60;;;13.70;99.90;;;;;;2606999;54;20449;-81
2022/08/02 02:52:03;;;;;;;30.60;17.70;;;13.50;99.90;;;;;;2608482;54;20449;-81
2022/08/02 02:54:29;;;;;;;26.53;17.23;;;13.60;99.90;;;;;;2608096;39;20647;-81
2022/08/02 02:56:57;;;;;;;18.03;15.83;;;13.60;99.90;;;;;;2608272;54;20453;-81
2022/08/02 02:59:24;;;;;;;22.07;17.90;;;13.70;99.90;;;;;;2607986;39;20836;-80
2022/08/02 03:01:52;;;;;;;16.53;14.80;;;13.80;99.90;;;;;;2606152;54;21443;-81
2022/08/02 03:04:19;;;;;;;18.10;16.20;;;13.60;99.90;;;;;;2605248;47;20667;-82
2022/08/02 03:06:45;;;;;;;19.27;17.20;;;13.60;99.90;;;;;;2606509;39;21031;-81
2022/08/02 03:09:11;;;;;;;20.10;17.03;;;13.60;99.90;;;;;;2608470;54;20447;-81
2022/08/02 03:11:38;;;;;;;19.50;15.87;;;13.60;99.90;;;;;;2608258;54;21138;-81
2022/08/02 03:14:07;;;;;;;18.07;16.10;;;13.50;99.90;;;;;;2608414;39;20216;-82
2022/08/02 03:16:33;;;;;;;17.87;16.00;;;13.40;99.90;;;;;;2608835;39;20749;-80
2022/08/02 03:19:02;;;;;;;19.00;16.60;;;13.40;99.90;;;;;;2609744;54;20443;-81
2022/08/02 03:21:28;;;;;;;17.80;16.10;;;13.30;99.90;;;;;;2614040;54;20171;-86
2022/08/02 03:23:54;;;;;;;18.13;16.23;;;13.40;99.90;;;;;;2613356;54;20396;-88
2022/08/02 03:26:20;;;;;;;18.43;15.80;;;13.40;99.90;;;;;;2614441;54;21014;-87
2022/08/02 03:28:45;;;;;;;18.43;16.60;;;13.40;99.90;;;;;;2614839;39;20298;-87
2022/08/02 03:31:11;;;;;;;18.13;16.30;;;13.30;99.90;;;;;;2613154;54;20415;-81
2022/08/02 03:33:38;;;;;;;19.00;17.10;;;13.20;99.90;;;;;;2612658;54;20164;-81
2022/08/02 03:36:16;;;;;;;22.13;17.30;;;13.30;99.90;;;;;;2611953;54;20166;-81
2022/08/02 03:38:43;;;;;;;18.57;16.67;;;13.40;99.90;;;;;;2613717;46;20474;-81
2022/08/02 03:41:12;;;;;;;19.90;17.60;;;13.30;99.90;;;;;;2614020;54;20435;-80
2022/08/02 03:43:39;;;;;;;18.47;16.93;;;13.30;99.90;;;;;;2613753;54;20458;-81
2022/08/02 03:46:07;;;;;;;18.90;17.20;;;13.20;99.90;;;;;;2612053;54;21141;-80
2022/08/02 03:48:36;;;;;;;17.87;16.20;;;13.10;99.90;;;;;;2613060;54;20420;-82
2022/08/02 03:51:02;;;;;;;20.17;16.77;;;13.10;99.90;;;;;;2610766;47;20435;-81
2022/08/02 03:53:28;;;;;;;18.43;16.60;;;13.10;99.90;;;;;;2607574;54;20408;-80
2022/08/02 03:55:53;;;;;;;16.80;15.33;;;13.40;99.90;;;;;;2607622;39;21083;-80
2022/08/02 03:58:23;;;;;;;18.90;17.10;;;13.20;99.90;;;;;;2607047;47;21482;-79
2022/08/02 04:00:50;;;;;;;21.07;17.80;;;13.10;99.90;;;;;;2608217;39;20299;-81
2022/08/02 04:03:16;;;;;;;18.50;16.90;;;13.10;99.90;;;;;;2607831;39;20872;-80
2022/08/02 04:05:42;;;;;;;22.37;17.10;;;13.30;99.90;;;;;;2607846;54;20404;-80
2022/08/02 04:08:07;;;;;;;18.33;16.53;;;13.40;99.90;;;;;;2607421;54;20170;-80
2022/08/02 04:13:20;;;;;;;18.50;16.77;;;13.30;99.90;;;;;;2608523;39;20870;-80
2022/08/02 04:15:49;;;;;;;20.63;18.50;;;13.30;99.90;;;;;;2607919;54;20415;-80
2022/08/02 04:18:18;;;;;;;18.20;16.70;;;13.30;99.90;;;;;;2606701;54;20442;-81
2022/08/02 04:20:47;;;;;;;20.13;17.63;;;13.30;99.90;;;;;;2606009;54;20468;-80
2022/08/02 04:23:14;;;;;;;16.53;14.97;;;13.40;99.90;;;;;;2607213;47;21021;-80
2022/08/02 04:25:41;;;;;;;21.03;17.60;;;13.50;99.90;;;;;;2607304;54;20458;-80
2022/08/02 04:28:08;;;;;;;18.93;17.23;;;13.50;99.90;;;;;;2606950;54;20434;-80
2022/08/02 04:30:35;;;;;;;18.83;16.90;;;13.60;99.90;;;;;;2606856;39;20517;-80
2022/08/02 04:33:00;;;;;;;22.93;16.77;;;13.60;99.90;;;;;;2608295;39;20632;-81
2022/08/02 04:35:26;;;;;;;20.30;18.07;;;13.80;99.90;;;;;;2607518;47;20443;-80
2022/08/02 04:37:53;;;;;;;25.07;18.93;;;14.00;99.90;;;;;;2608529;54;20185;-80
2022/08/02 04:40:18;;;;;;;21.00;18.70;;;14.10;99.90;;;;;;2607301;54;20415;-80
2022/08/02 04:42:44;;;;;;;20.27;18.37;;;14.10;99.90;;;;;;2607781;54;20451;-80
2022/08/02 04:45:11;;;;;;;28.17;19.03;;;14.30;99.90;;;;;;2607447;54;21504;-80
2022/08/02 04:47:36;;;;;;;20.97;18.43;;;14.30;99.90;;;;;;2607436;54;20270;-80
2022/08/02 04:50:03;;;;;;;22.50;18.03;;;14.40;99.90;;;;;;2608369;54;21016;-80
2022/08/02 04:52:28;;;;;;;21.00;18.77;;;14.60;99.90;;;;;;2613838;54;20236;-85
2022/08/02 04:54:55;;;;;;;24.60;21.77;;;14.70;99.90;;;;;;2613452;54;20404;-85
2022/08/02 05:00:07;;;;;;;23.00;20.70;;;15.20;99.90;;;;;;2612033;54;20603;-75
2022/08/02 05:02:33;;;;;;;24.17;19.07;;;15.10;99.90;;;;;;2611968;54;20433;-80
2022/08/02 05:04:59;;;;;;;25.90;20.77;;;15.10;99.90;;;;;;2612829;31;21017;-81
2022/08/02 05:07:25;;;;;;;21.47;19.67;;;15.20;99.90;;;;;;2614225;54;20430;-87
2022/08/02 05:09:50;;;;;;;21.23;18.97;;;15.20;99.90;;;;;;2621463;54;20186;-86
2022/08/02 05:12:16;;;;;;;20.30;18.37;;;15.30;99.90;;;;;;2616160;54;20162;-86
2022/08/02 05:14:42;;;;;;;23.33;21.03;;;15.60;99.90;;;;;;2614481;54;20189;-85
2022/08/02 05:17:07;;;;;;;22.33;20.17;;;15.80;99.90;;;;;;2612852;54;20212;-75
2022/08/02 05:19:33;;;;;;;22.57;20.37;;;15.90;99.90;;;;;;2606423;54;20163;-75
2022/08/02 05:21:59;;;;;;;21.70;18.03;;;16.00;99.90;;;;;;2607250;47;20287;-76
2022/08/02 05:24:24;;;;;;;22.47;20.20;;;16.10;99.90;;;;;;2603165;54;20167;-77
2022/08/02 05:26:50;;;;;;;21.27;18.77;;;16.10;99.90;;;;;;2605547;47;20182;-76
2022/08/02 05:29:16;;;;;;;22.80;20.57;;;16.20;99.90;;;;;;2606092;54;20166;-77
2022/08/02 05:31:42;;;;;;;28.43;20.43;;;16.20;99.90;;;;;;2605777;39;20575;-76
2022/08/02 05:34:07;;;;;;;21.97;19.67;;;16.60;99.90;;;;;;2605077;47;20428;-75
2022/08/02 05:36:33;;;;;;;21.87;18.80;;;17.20;99.90;;;;;;2604553;46;20176;-76
2022/08/02 05:38:58;;;;;;;20.43;18.33;;;17.80;99.90;;;;;;2606959;54;20469;-76
2022/08/02 05:41:24;;;;;;;22.90;17.73;;;18.40;99.90;;;;;;2605809;54;20714;-76
2022/08/02 05:43:50;;;;;;;19.50;18.00;;;18.80;99.90;;;;;;2606203;54;20173;-76
2022/08/02 05:46:15;;;;;;;19.57;16.57;;;18.80;99.90;;;;;;2606153;54;20179;-76
2022/08/02 05:48:43;;;;;;;17.17;15.53;;;18.20;99.90;;;;;;2624199;36;20286;-76
2022/08/02 05:51:28;;;;;;;19.03;17.17;;;17.90;99.90;;;;;;2608290;39;20262;-76
2022/08/02 05:54:26;;;;;;;19.90;16.70;;;17.70;99.90;;;;;;2604656;39;20530;-77
2022/08/02 05:57:03;;;;;;;17.13;15.53;;;18.00;99.90;;;;;;2605186;54;20442;-76
2022/08/02 05:59:33;;;;;;;16.27;14.67;;;18.80;99.90;;;;;;2607765;54;20445;-76
2022/08/02 06:02:03;;;;;;;20.63;15.37;;;19.40;99.90;;;;;;2607702;54;20976;-76
2022/08/02 06:04:57;;;;;;;16.30;13.20;;;19.60;99.90;;;;;;2608014;54;21072;-75
2022/08/02 06:07:23;;;;;;;12.97;11.77;;;19.70;99.90;;;;;;2606098;54;20445;-75
2022/08/02 06:09:50;;;;;;;12.33;11.33;;;20.00;99.90;;;;;;2605205;54;20437;-76
2022/08/02 06:12:17;;;;;;;11.50;10.60;;;20.60;99.90;;;;;;2607476;54;20154;-76
2022/08/02 06:14:44;;;;;;;12.03;11.13;;;20.70;99.90;;;;;;2607212;39;20552;-76
2022/08/02 06:17:11;;;;;;;12.30;11.10;;;20.80;99.90;;;;;;2607188;54;20521;-76
2022/08/02 06:19:38;;;;;;;11.20;10.30;;;21.10;99.90;;;;;;2606039;54;20447;-76
2022/08/02 06:22:16;;;;;;;10.97;10.03;;;21.40;99.90;;;;;;2607050;54;20419;-75
2022/08/02 06:24:49;;;;;;;10.77;9.87;;;21.80;99.90;;;;;;2607043;54;20490;-75
2022/08/02 06:27:15;;;;;;;11.03;9.80;;;21.40;99.90;;;;;;2608172;31;20593;-75
2022/08/02 06:29:42;;;;;;;15.70;10.53;;;21.80;99.90;;;;;;2605848;54;20647;-76
2022/08/02 06:32:08;;;;;;;10.83;9.93;;;21.90;99.90;;;;;;2605925;54;20949;-76
2022/08/02 06:34:38;;;;;;;10.63;9.80;;;21.90;99.90;;;;;;2607038;54;20557;-75
2022/08/02 06:37:26;;;;;;;12.00;10.80;;;21.20;99.90;;;;;;2606997;46;20411;-75
2022/08/02 06:40:02;;;;;;;11.17;10.20;;;21.20;99.90;;;;;;2607483;54;20426;-75
2022/08/02 06:42:43;;;;;;;10.90;9.83;;;21.80;99.90;;;;;;2606228;54;20423;-76
2022/08/02 06:45:08;;;;;;;13.97;9.93;;;22.20;99.90;;;;;;2607549;39;20457;-75
2022/08/02 06:47:34;;;;;;;10.93;9.87;;;22.00;99.90;;;;;;2607108;54;22220;-75
2022/08/02 06:50:00;;;;;;;10.60;9.70;;;22.60;99.90;;;;;;2608878;54;21047;-76
2022/08/02 06:52:29;;;;;;;10.60;9.90;;;22.00;99.90;;;;;;2609315;39;20699;-75
2022/08/02 06:54:59;;;;;;;10.37;9.57;;;22.00;99.90;;;;;;2611127;54;20175;-76
2022/08/02 06:57:26;;;;;;;13.70;10.70;;;22.30;99.90;;;;;;2610949;46;20427;-76
2022/08/02 06:59:52;;;;;;;10.67;9.63;;;22.90;99.90;;;;;;2614735;54;20411;-76
2022/08/02 07:02:18;;;;;;;10.93;10.03;;;22.70;99.90;;;;;;2612381;47;20445;-76
2022/08/02 07:04:43;;;;;;;10.50;9.50;;;22.90;99.90;;;;;;2614503;47;20178;-76
2022/08/02 07:07:09;;;;;;;11.73;10.60;;;23.00;99.90;;;;;;2614211;54;20423;-77
2022/08/02 07:09:35;;;;;;;11.97;10.87;;;23.40;99.90;;;;;;2613102;54;20166;-77
2022/08/02 07:12:01;;;;;;;12.67;11.50;;;22.90;99.90;;;;;;2614459;47;20423;-75
2022/08/02 07:14:26;;;;;;;12.40;11.43;;;23.70;99.90;;;;;;2613476;54;20190;-75
2022/08/02 07:16:52;;;;;;;11.43;10.53;;;23.50;99.90;;;;;;2610700;54;20951;-76
2022/08/02 07:19:18;;;;;;;11.80;10.80;;;24.00;99.90;;;;;;2610786;54;20170;-75
2022/08/02 07:21:43;;;;;;;10.43;9.63;;;23.80;99.90;;;;;;2607125;39;20958;-75
2022/08/02 07:24:09;;;;;;;11.73;10.73;;;24.00;99.90;;;;;;2606713;54;20970;-76
2022/08/02 07:26:35;;;;;;;11.53;10.47;;;24.10;99.90;;;;;;2610308;54;20182;-77
2022/08/02 07:29:01;;;;;;;10.77;9.97;;;24.30;98.90;;;;;;2612939;54;20170;-77
2022/08/02 07:31:27;;;;;;;11.20;10.40;;;24.60;95.30;;;;;;2614760;39;20215;-80
2022/08/02 07:33:53;;;;;;;10.00;9.40;;;24.30;93.20;;;;;;2612008;39;20867;-79
2022/08/02 07:36:19;;;;;;;10.80;9.40;;;24.80;94.50;;;;;;2608398;39;20648;-80
2022/08/02 07:38:45;;;;;;;9.50;8.73;;;24.60;91.80;;;;;;2612871;54;20431;-80
2022/08/02 07:41:10;;;;;;;9.20;8.07;;;25.00;78.40;;;;;;2607775;54;20330;-79
2022/08/02 07:43:36;;;;;;;10.80;9.90;;;25.00;83.10;;;;;;2606819;54;20173;-80
2022/08/02 07:46:02;;;;;;;9.27;8.43;;;24.50;76.60;;;;;;2606476;39;20196;-79
2022/08/02 07:48:27;;;;;;;9.03;8.43;;;24.50;80.10;;;;;;2607318;54;20280;-79
2022/08/02 07:50:53;;;;;;;11.87;9.07;;;24.80;73.60;;;;;;2606094;39;20234;-80
2022/08/02 07:53:19;;;;;;;9.20;8.53;;;25.20;66.80;;;;;;2606712;47;20310;-79
2022/08/02 07:55:44;;;;;;;8.87;8.20;;;24.40;60.40;;;;;;2605662;46;20199;-79
2022/08/02 07:58:11;;;;;;;9.30;8.60;;;24.90;54.30;;;;;;2605813;47;20317;-80
2022/08/02 08:00:36;;;;;;;9.27;8.50;;;25.70;46.40;;;;;;2606682;54;21062;-81
2022/08/02 08:03:02;;;;;;;10.10;9.40;;;25.60;38.80;;;;;;2606774;31;20597;-81
2022/08/02 08:05:28;;;;;;;9.80;8.47;;;25.10;42.40;;;;;;2606898;46;21283;-80
2022/08/02 08:07:54;;;;;;;10.37;9.47;;;25.40;41.20;;;;;;2607120;39;20865;-80
2022/08/02 08:10:20;;;;;;;10.93;9.93;;;25.20;35.90;;;;;;2604940;54;20261;-80
2022/08/02 08:12:45;;;;;;;10.50;8.93;;;25.60;37.30;;;;;;2607338;39;20692;-80
2022/08/02 08:15:11;;;;;;;9.00;8.40;;;25.00;31.00;;;;;;2605980;39;20327;-79
2022/08/02 08:17:38;;;;;;;9.53;8.83;;;25.70;30.00;;;;;;2604937;54;20162;-83
2022/08/02 08:20:04;;;;;;;9.13;8.53;;;25.20;24.30;;;;;;2606266;54;20159;-80
2022/08/02 08:22:30;;;;;;;8.47;8.03;;;25.00;21.90;;;;;;2606408;54;21019;-79
2022/08/02 08:24:55;;;;;;;9.63;9.03;;;26.30;21.90;;;;;;2604841;54;20431;-80
2022/08/02 08:27:21;;;;;;;8.70;8.10;;;26.10;18.40;;;;;;2606182;54;20238;-81
2022/08/02 08:29:48;;;;;;;9.00;8.50;;;25.90;16.50;;;;;;2604717;47;20174;-80
2022/08/02 08:32:14;;;;;;;9.60;9.00;;;26.60;15.30;;;;;;2606882;54;20437;-80
2022/08/02 08:34:40;;;;;;;9.70;9.10;;;26.30;12.30;;;;;;2607679;54;21072;-80
2022/08/02 08:37:06;;;;;;;9.93;9.33;;;26.20;15.70;;;;;;2608012;54;20170;-79
2022/08/02 08:39:31;;;;;;;9.77;8.90;;;26.90;14.80;;;;;;2608147;39;20211;-80
2022/08/02 08:41:57;;;;;;;9.73;9.23;;;26.70;13.80;;;;;;2607013;54;20424;-79
2022/08/02 08:44:23;;;;;;;9.20;8.57;;;27.30;14.20;;;;;;2624535;36;20261;-80
2022/08/02 08:46:49;;;;;;;9.50;9.00;;;27.00;10.30;;;;;;2613657;47;20835;-76
2022/08/02 08:49:30;;;;;;;8.77;8.37;;;27.50;8.10;;;;;;2614115;54;20156;-75
2022/08/02 08:51:58;;;;;;;8.20;7.90;;;26.70;9.40;;;;;;2610302;47;20998;-78
2022/08/02 08:54:28;;;;;;;8.73;8.33;;;27.50;8.10;;;;;;2613714;54;20544;-77
2022/08/02 08:56:55;;;;;;;9.10;8.70;;;27.60;7.70;;;;;;2614455;47;20451;-80
2022/08/02 08:59:21;;;;;;;8.10;7.60;;;26.80;7.80;;;;;;2614639;54;20441;-81
2022/08/02 09:01:49;;;;;;;9.37;8.47;;;26.70;6.50;;;;;;2611114;54;20426;-81
2022/08/02 09:04:15;;;;;;;8.77;8.37;;;26.80;7.80;;;;;;2614435;39;20652;-80
2022/08/02 09:06:41;;;;;;;8.90;8.23;;;26.30;9.20;;;;;;2614225;47;20506;-77
2022/08/02 09:09:07;;;;;;;9.70;9.07;;;27.10;8.80;;;;;;2614091;47;20458;-77
2022/08/02 09:11:33;;;;;;;10.20;8.50;;;27.20;8.00;;;;;;2608032;47;20990;-78
2022/08/02 09:14:00;;;;;;;10.30;9.73;;;28.40;8.60;;;;;;2613775;39;20555;-76
2022/08/02 09:16:32;;;;;;;9.03;8.63;;;27.20;8.80;;;;;;2614178;54;20175;-80
2022/08/02 09:18:59;;;;;;;9.47;8.87;;;26.50;8.40;;;;;;2614217;54;21067;-81
2022/08/02 09:21:34;;;;;;;8.87;8.40;;;26.50;10.90;;;;;;2614771;54;20427;-77
2022/08/02 09:24:00;;;;;;;9.17;8.70;;;26.50;11.10;;;;;;2612358;54;20434;-75
2022/08/02 09:26:26;;;;;;;9.40;9.00;;;26.10;10.90;;;;;;2613737;54;21072;-78
2022/08/02 09:28:59;;;;;;;8.57;7.97;;;25.50;13.00;;;;;;2609569;47;20532;-78
2022/08/02 09:31:25;;;;;;;8.90;8.40;;;26.90;12.70;;;;;;2608146;31;20602;-76
2022/08/02 09:33:53;;;;;;;9.27;8.70;;;25.90;12.30;;;;;;2608104;47;20535;-77
2022/08/02 09:36:20;;;;;;;9.30;8.70;;;26.10;12.40;;;;;;2607789;54;20434;-78
2022/08/02 09:38:52;;;;;;;9.67;9.20;;;25.70;12.40;;;;;;2607513;47;20447;-78
2022/08/02 09:41:26;;;;;;;9.60;8.80;;;26.80;11.40;;;;;;2607291;54;20417;-77
2022/08/02 09:43:54;;;;;;;9.73;9.23;;;27.90;9.90;;;;;;2606399;54;20519;-77
2022/08/02 09:46:24;;;;;;;9.40;8.90;;;27.30;11.00;;;;;;2607190;54;20504;-78
2022/08/02 09:48:58;;;;;;;9.03;8.43;;;27.60;11.70;;;;;;2607388;54;20441;-76
2022/08/02 09:51:26;;;;;;;10.30;9.60;;;29.00;8.90;;;;;;2607257;54;20432;-75
2022/08/02 09:53:57;;;;;;;9.93;9.43;;;27.60;8.90;;;;;;2606606;54;20459;-76
2022/08/02 09:56:24;;;;;;;9.90;9.00;;;28.00;9.80;;;;;;2606496;54;21044;-75
2022/08/02 09:58:53;;;;;;;9.70;9.20;;;26.90;11.10;;;;;;2607213;47;20447;-75
2022/08/02 10:01:20;;;;;;;9.50;9.00;;;27.30;12.20;;;;;;2607086;54;20444;-76
2022/08/02 10:04:01;;;;;;;10.20;9.53;;;27.20;12.30;;;;;;2606164;54;20411;-75
2022/08/02 10:06:27;;;;;;;11.47;10.57;;;26.90;13.70;;;;;;2606419;54;20420;-77
2022/08/02 10:08:53;;;;;;;9.20;8.80;;;27.10;14.00;;;;;;2606525;39;20532;-78
2022/08/02 10:11:21;;;;;;;9.50;9.00;;;28.20;12.70;;;;;;2606854;54;20431;-77
2022/08/02 10:13:48;;;;;;;9.20;8.63;;;27.50;13.70;;;;;;2605915;39;20819;-78
2022/08/02 10:16:16;;;;;;;10.77;10.10;;;26.50;14.50;;;;;;2607670;46;20447;-77
2022/08/02 10:18:42;;;;;;;10.20;9.60;;;27.40;12.00;;;;;;2605741;47;20424;-78
2022/08/02 10:21:14;;;;;;;9.70;9.10;;;27.80;12.40;;;;;;2607782;54;20416;-76
2022/08/02 10:23:43;;;;;;;10.50;9.97;;;27.10;11.20;;;;;;2608049;54;20405;-76
2022/08/02 10:26:13;;;;;;;10.33;9.80;;;27.40;12.60;;;;;;2608014;54;20503;-76
2022/08/02 10:28:39;;;;;;;10.50;9.70;;;27.70;11.30;;;;;;2609538;39;20627;-76
2022/08/02 10:31:06;;;;;;;9.67;9.10;;;28.10;12.60;;;;;;2613643;54;20536;-76
2022/08/02 10:33:37;;;;;;;10.60;9.80;;;28.50;11.30;;;;;;2613662;47;20203;-76
2022/08/02 10:36:05;;;;;;;10.53;9.93;;;28.40;9.80;;;;;;2613596;54;20468;-77
2022/08/02 10:38:32;;;;;;;11.13;10.23;;;27.90;10.80;;;;;;2612232;47;20418;-77
2022/08/02 10:40:58;;;;;;;10.83;9.97;;;28.20;10.60;;;;;;2611083;47;20424;-77
2022/08/02 10:43:36;;;;;;;10.00;9.40;;;29.00;11.30;;;;;;2611470;31;20892;-76
2022/08/02 10:46:20;;;;;;;10.57;10.07;;;28.50;8.60;;;;;;2610404;54;20694;-76
2022/08/02 10:49:08;;;;;;;9.97;9.47;;;28.20;9.40;;;;;;2612543;54;20492;-81
2022/08/02 10:51:59;;;;;;;10.27;9.33;;;29.90;8.40;;;;;;2611329;54;20978;-81
2022/08/02 10:54:39;;;;;;;15.23;9.90;;;29.40;7.80;;;;;;2610934;54;21050;-81
2022/08/02 10:57:22;;;;;;;10.00;9.40;;;30.10;6.70;;;;;;2612429;47;20418;-76
2022/08/02 10:59:51;;;;;;;9.23;8.53;;;29.60;5.70;;;;;;2611114;47;20480;-77
2022/08/02 11:02:40;;;;;;;9.40;8.80;;;30.50;5.10;;;;;;2605842;46;20438;-77
2022/08/02 11:05:10;;;;;;;9.80;9.20;;;28.60;6.80;;;;;;2606428;54;20524;-76
2022/08/02 11:07:45;;;;;;;10.70;9.80;;;28.10;9.40;;;;;;2604860;54;20411;-76
2022/08/02 11:10:35;;;;;;;13.57;9.70;;;28.00;9.60;;;;;;2606073;54;20458;-77
2022/08/02 11:13:12;;;;;;;9.77;9.17;;;28.80;8.10;;;;;;2606915;39;20485;-77
2022/08/02 11:16:04;;;;;;;9.23;8.50;;;27.80;6.40;;;;;;2605539;54;20458;-76
2022/08/02 11:18:48;;;;;;;10.30;9.80;;;29.50;7.50;;;;;;2605879;39;21014;-77
2022/08/02 11:21:31;;;;;;;9.63;9.10;;;27.90;7.30;;;;;;2604384;54;20437;-76
2022/08/02 11:24:26;;;;;;;9.80;9.20;;;28.30;7.60;;;;;;2605676;54;20416;-77
2022/08/02 11:26:52;;;;;;;9.73;9.17;;;28.20;7.70;;;;;;2605908;54;21171;-77
2022/08/02 11:29:19;;;;;;;10.07;9.47;;;27.70;7.90;;;;;;2605958;54;21177;-77
2022/08/02 11:31:45;;;;;;;9.67;9.17;;;27.70;6.20;;;;;;2604245;39;20649;-77
2022/08/02 11:34:15;;;;;;;10.13;9.43;;;28.90;6.40;;;;;;2605109;39;20662;-77
2022/08/02 11:36:48;;;;;;;9.73;9.07;;;28.30;7.00;;;;;;2606378;39;20471;-76
2022/08/02 11:39:17;;;;;;;9.70;9.10;;;29.90;6.30;;;;;;2606192;54;20561;-76
2022/08/02 11:41:51;;;;;;;10.57;9.80;;;28.80;4.60;;;;;;2605357;54;21104;-77
2022/08/02 11:44:18;;;;;;;9.70;9.20;;;29.20;5.30;;;;;;2604926;39;20517;-77
2022/08/02 11:46:44;;;;;;;8.57;8.07;;;29.00;5.80;;;;;;2606179;54;21745;-77
2022/08/02 11:49:15;;;;;;;8.57;8.07;;;28.10;4.80;;;;;;2605334;39;21014;-76
2022/08/02 11:51:52;;;;;;;8.87;8.07;;;28.20;5.40;;;;;;2605026;54;21161;-78
2022/08/02 11:54:29;;;;;;;8.50;7.90;;;27.80;5.90;;;;;;2607879;39;20532;-77
2022/08/02 11:57:08;;;;;;;8.27;7.87;;;28.50;6.10;;;;;;2604177;54;20417;-79
2022/08/02 11:59:38;;;;;;;8.17;7.77;;;29.70;3.90;;;;;;2606186;54;20429;-78
2022/08/02 12:02:05;;;;;;;8.30;7.70;;;28.70;3.70;;;;;;2608626;54;21061;-77
2022/08/02 12:04:31;;;;;;;8.10;7.63;;;28.00;3.90;;;;;;2612273;31;20982;-77
2022/08/02 12:06:58;;;;;;;8.00;7.50;;;28.60;4.00;;;;;;2611218;47;20452;-76
2022/08/02 12:09:26;;;;;;;7.87;7.37;;;28.80;3.40;;;;;;2611980;54;20164;-77
2022/08/02 12:11:52;;;;;;;8.07;7.60;;;27.90;2.80;;;;;;2610406;54;20455;-83
2022/08/02 12:14:18;;;;;;;8.27;7.87;;;28.10;4.10;;;;;;2609860;54;21059;-80
2022/08/02 12:19:29;;;;;;;7.80;7.30;;;28.50;3.20;;;;;;2606603;54;21093;-84
2022/08/02 12:22:17;;;;;;;8.70;8.17;;;28.20;3.10;;;;;;2606155;39;20552;-80
2022/08/02 12:24:46;;;;;;;8.83;8.03;;;28.60;2.70;;;;;;2606561;39;20459;-79
2022/08/02 12:27:35;;;;;;;8.63;7.97;;;29.30;2.60;;;;;;2607518;54;20401;-79
2022/08/02 12:30:07;;;;;;;8.80;8.20;;;29.70;3.20;;;;;;2604367;54;20457;-81
2022/08/02 12:32:34;;;;;;;8.20;7.80;;;28.80;2.80;;;;;;2604828;54;20416;-80
2022/08/02 12:35:10;;;;;;;8.67;8.10;;;28.10;3.30;;;;;;2607297;47;21264;-81
2022/08/02 12:37:39;;;;;;;8.87;8.40;;;28.70;3.70;;;;;;2607374;39;20736;-82
2022/08/02 12:40:37;;;;;;;8.97;8.47;;;27.60;3.50;;;;;;2608209;39;20537;-80
2022/08/02 12:43:07;;;;;;;8.43;7.90;;;28.40;2.70;;;;;;2604977;54;20609;-79
2022/08/02 12:45:54;;;;;;;8.53;8.03;;;29.50;3.10;;;;;;2603301;54;20458;-82
2022/08/02 12:48:37;;;;;;;9.20;8.53;;;28.70;2.30;;;;;;2605178;54;20783;-81
2022/08/02 12:51:21;;;;;;;11.13;8.17;;;29.00;1.80;;;;;;2604229;54;20504;-79
2022/08/02 12:53:47;;;;;;;9.40;8.60;;;28.70;1.60;;;;;;2601623;47;20453;-79
2022/08/02 12:56:32;;;;;;;7.87;7.47;;;29.40;2.10;;;;;;2604350;54;20430;-80